Gibson City, Illinois
Current Conditions -  °F | °C
As of 8:30 AM on Friday 24 Oct 2014 (Local Time) from KTIP Reporting Station
Haze Haze  
Wind Chill: 50°   Ceiling: Unl
Heat Index: 50°   Visibility: 5mi
Dew Point: 48°   Wind: 0mph
Humidity: 91%   Direction: NA
Pressure: 30.09"   Gusts: NA
Location:  40.47°N, 88.38°W
Report Text: KTIP 241330Z AUTO 00000KT 5SM BR SCT030 10/09 A3009 RMK AO2 T01010087
Loading
Personal Weather Stations






























Interactive Weather Map
Tropical Storm Tracking
New forecast layout! Learn more

10-Day Weather Forecast

Advertisements
Track Severe Weather on mobile